Time;durP1;ratioP1;P1;durP2;ratioP2;P2;SDS_P1;SDS_P2;PMS_P1;PMS_P2;Temp;Humidity;BMP_temperature;BMP_pressure;BME280_temperature;BME280_humidity;BME280_pressure;Samples;Min_cycle;Max_cycle;Signal;HPM_P1;HPM_P2
2021/04/13 00:01:11;;;;;;;7.05;2.15;;;;;;;1.72;100.00;103205.50;6160909;23;20343;-84
2021/04/13 00:03:45;;;;;;;3.10;1.13;;;;;;;1.56;100.00;103204.16;6135620;23;20585;-82
2021/04/13 00:06:23;;;;;;;5.00;1.30;;;;;;;1.67;100.00;103202.75;6162335;23;20009;-82
2021/04/13 00:08:51;;;;;;;8.68;2.03;;;;;;;1.50;100.00;103206.53;6161872;23;20005;-82
2021/04/13 00:11:18;;;;;;;9.35;2.25;;;;;;;1.42;100.00;103211.53;6136142;23;20141;-82
2021/04/13 00:13:43;;;;;;;4.80;1.67;;;;;;;1.42;100.00;103203.72;6162336;23;20016;-82
2021/04/13 00:16:16;;;;;;;4.28;1.15;;;;;;;1.54;100.00;103200.59;6161617;23;20002;-82
2021/04/13 00:18:44;;;;;;;6.97;2.05;;;;;;;1.37;100.00;103207.03;6134930;23;20055;-82
2021/04/13 00:21:21;;;;;;;4.55;1.52;;;;;;;1.27;100.00;103206.72;6134403;23;20070;-82
2021/04/13 00:23:47;;;;;;;7.35;1.67;;;;;;;1.20;100.00;103198.66;6134817;23;19998;-82
2021/04/13 00:26:36;;;;;;;5.60;1.40;;;;;;;1.16;100.00;103200.31;6160858;23;20002;-83
2021/04/13 00:29:10;;;;;;;6.70;1.73;;;;;;;1.11;100.00;103207.09;6134939;23;20048;-83
2021/04/13 00:34:29;;;;;;;12.63;1.40;;;;;;;1.07;100.00;103210.41;6170709;23;20009;-83
2021/04/13 00:37:26;;;;;;;6.57;1.50;;;;;;;1.08;100.00;103211.31;6161257;23;20327;-82
2021/04/13 00:40:12;;;;;;;3.92;1.40;;;;;;;1.03;100.00;103211.16;6134814;23;20072;-81
2021/04/13 00:42:37;;;;;;;5.70;1.52;;;;;;;1.15;100.00;103200.22;6137966;23;20001;-81
2021/04/13 00:45:32;;;;;;;6.05;2.13;;;;;;;1.07;100.00;103210.41;6137268;23;20294;-82
2021/04/13 00:48:01;;;;;;;6.65;1.70;;;;;;;1.01;100.00;103208.50;6151460;23;20022;-82
2021/04/13 00:50:40;;;;;;;6.75;1.60;;;;;;;1.21;100.00;103208.28;6136124;23;20002;-81
2021/04/13 00:53:11;;;;;;;6.97;1.50;;;;;;;1.22;100.00;103210.03;6135176;23;20097;-82
2021/04/13 00:55:45;;;;;;;4.45;1.65;;;;;;;1.10;100.00;103205.28;6133821;23;20005;-83
2021/04/13 00:58:36;;;;;;;5.60;1.70;;;;;;;1.06;100.00;103205.16;6133623;23;20415;-82
2021/04/13 01:01:11;;;;;;;5.88;1.50;;;;;;;0.92;100.00;103207.31;6108684;23;20012;-83
2021/04/13 01:03:45;;;;;;;6.78;1.33;;;;;;;0.77;100.00;103202.47;6109213;23;20407;-83
2021/04/13 01:06:22;;;;;;;8.90;1.77;;;;;;;0.99;100.00;103209.28;6104338;23;20279;-83
2021/04/13 01:08:57;;;;;;;5.95;1.77;;;;;;;0.82;100.00;103203.53;6105202;23;20012;-83
2021/04/13 01:11:28;;;;;;;7.03;1.75;;;;;;;0.80;100.00;103207.78;6136046;23;20053;-83
2021/04/13 01:13:59;;;;;;;4.65;1.55;;;;;;;0.81;100.00;103206.09;6111593;23;20005;-83
2021/04/13 01:16:31;;;;;;;8.20;1.73;;;;;;;0.90;100.00;103196.81;6110670;23;20001;-84
2021/04/13 01:19:00;;;;;;;7.03;1.60;;;;;;;0.87;100.00;103217.56;6110293;23;20012;-83
2021/04/13 01:21:48;;;;;;;9.43;2.20;;;;;;;0.95;100.00;103215.22;6109963;23;20009;-83
2021/04/13 01:24:22;;;;;;;7.30;1.70;;;;;;;0.97;100.00;103205.75;6110261;23;20627;-83
2021/04/13 01:26:50;;;;;;;8.00;1.65;;;;;;;0.80;100.00;103218.19;6108203;23;20029;-81
2021/04/13 01:29:19;;;;;;;8.93;1.92;;;;;;;0.77;100.00;103216.38;6107191;23;20005;-82
2021/04/13 01:31:52;;;;;;;14.82;2.85;;;;;;;0.81;100.00;103213.91;6133815;23;20024;-83
2021/04/13 01:34:26;;;;;;;5.35;1.58;;;;;;;0.71;100.00;103210.97;6107927;23;20001;-82
2021/04/13 01:37:14;;;;;;;7.65;1.90;;;;;;;0.68;100.00;103218.66;6106205;23;20395;-82
2021/04/13 01:39:47;;;;;;;7.82;1.90;;;;;;;0.66;100.00;103217.75;6106260;23;20196;-82
2021/04/13 01:42:13;;;;;;;15.50;2.45;;;;;;;0.69;100.00;103207.41;6106234;23;20531;-83
2021/04/13 01:44:58;;;;;;;6.82;2.28;;;;;;;0.57;100.00;103217.41;6132507;23;20061;-82
2021/04/13 01:47:26;;;;;;;8.57;1.87;;;;;;;0.54;100.00;103211.22;6106395;23;20428;-81
2021/04/13 01:49:55;;;;;;;11.32;2.00;;;;;;;0.43;100.00;103211.72;6107026;23;20516;-82
2021/04/13 01:52:30;;;;;;;7.47;2.47;;;;;;;0.49;100.00;103221.47;6106872;23;20091;-82
2021/04/13 01:55:04;;;;;;;11.07;2.53;;;;;;;0.45;100.00;103212.69;6134523;23;20712;-83
2021/04/13 01:57:46;;;;;;;8.88;2.15;;;;;;;0.36;100.00;103216.69;6132319;23;20006;-84
2021/04/13 02:00:14;;;;;;;6.47;2.00;;;;;;;0.31;100.00;103220.84;6106317;23;20014;-84
2021/04/13 02:03:22;;;;;;;7.53;2.90;;;;;;;0.33;100.00;103222.63;6131680;23;20076;-83
2021/04/13 02:05:53;;;;;;;6.88;2.65;;;;;;;0.24;100.00;103231.00;6070332;23;20013;-83
2021/04/13 02:08:28;;;;;;;7.53;3.35;;;;;;;0.35;100.00;103233.09;6105960;23;20006;-83
2021/04/13 02:11:00;;;;;;;7.53;3.60;;;;;;;0.33;100.00;103225.25;6106300;23;20435;-84
2021/04/13 02:13:37;;;;;;;8.68;3.40;;;;;;;0.49;100.00;103235.34;6133318;23;20002;-83
2021/04/13 02:16:07;;;;;;;11.13;4.30;;;;;;;0.52;100.00;103232.00;6107554;23;20014;-84
2021/04/13 02:18:43;;;;;;;13.40;3.28;;;;;;;0.61;100.00;103234.91;6106920;23;20013;-84
2021/04/13 02:21:16;;;;;;;10.93;3.28;;;;;;;0.76;100.00;103235.44;6133259;23;20081;-83
2021/04/13 02:23:46;;;;;;;5.68;2.92;;;;;;;0.78;100.00;103238.09;6107125;23;20451;-83
2021/04/13 02:26:12;;;;;;;19.05;4.90;;;;;;;0.57;100.00;103222.63;6107016;23;20099;-82
2021/04/13 02:28:40;;;;;;;6.88;2.88;;;;;;;0.70;100.00;103239.53;6130982;23;20021;-82
2021/04/13 02:31:11;;;;;;;11.18;3.40;;;;;;;0.63;100.00;103238.44;6130901;23;20022;-82
2021/04/13 02:33:43;;;;;;;13.35;3.17;;;;;;;0.59;100.00;103233.97;6129923;23;20460;-81
2021/04/13 02:36:26;;;;;;;7.53;3.05;;;;;;;0.52;100.00;103240.69;6135648;23;20073;-84
2021/04/13 02:38:54;;;;;;;13.50;3.10;;;;;;;0.51;100.00;103238.91;6110800;23;20002;-83
2021/04/13 02:41:28;;;;;;;6.82;3.25;;;;;;;0.50;100.00;103233.63;6134643;23;20087;-83
2021/04/13 02:43:59;;;;;;;11.52;3.47;;;;;;;0.41;100.00;103241.13;6134387;23;20002;-83
2021/04/13 02:46:31;;;;;;;10.02;3.42;;;;;;;0.45;100.00;103240.38;6137223;23;20017;-84
2021/04/13 02:49:06;;;;;;;8.73;3.67;;;;;;;0.50;100.00;103244.97;6112366;23;20010;-83
2021/04/13 02:51:34;;;;;;;8.38;3.78;;;;;;;0.52;100.00;103245.00;6111905;23;20029;-83
2021/04/13 02:54:01;;;;;;;9.82;3.58;;;;;;;0.37;100.00;103237.53;6113191;23;20014;-83
2021/04/13 02:56:40;;;;;;;11.98;3.55;;;;;;;0.26;100.00;103236.28;6135212;23;20012;-83
2021/04/13 02:59:12;;;;;;;8.02;4.35;;;;;;;0.39;100.00;103246.25;6106370;23;20017;-81
2021/04/13 03:01:49;;;;;;;10.68;4.40;;;;;;;0.37;100.00;103234.94;6106619;23;20017;-83
2021/04/13 03:04:16;;;;;;;14.27;5.32;;;;;;;0.27;100.00;103237.16;6132967;23;20002;-84
2021/04/13 03:06:49;;;;;;;10.30;4.03;;;;;;;0.17;100.00;103246.34;6106266;23;20010;-83
2021/04/13 03:09:17;;;;;;;8.02;4.38;;;;;;;0.07;100.00;103239.03;6106491;23;20427;-83
2021/04/13 03:11:49;;;;;;;8.93;5.18;;;;;;;0.05;100.00;103244.19;6131693;23;20006;-82
2021/04/13 03:14:20;;;;;;;9.77;4.72;;;;;;;0.07;100.00;103246.81;6105895;23;20439;-82
2021/04/13 03:16:49;;;;;;;13.43;4.93;;;;;;;0.02;100.00;103232.78;6132724;23;20134;-83
2021/04/13 03:19:19;;;;;;;11.75;5.03;;;;;;;0.08;100.00;103244.28;6107850;23;20006;-83
2021/04/13 03:21:50;;;;;;;12.52;4.63;;;;;;;0.04;100.00;103239.78;6106054;23;20084;-82
2021/04/13 03:24:21;;;;;;;8.38;4.03;;;;;;;0.00;100.00;103240.53;6105916;23;20002;-83
2021/04/13 03:26:53;;;;;;;7.85;4.10;;;;;;;0.02;100.00;103240.56;6105763;23;20350;-82
2021/04/13 03:29:26;;;;;;;12.57;4.35;;;;;;;-0.03;100.00;103237.78;6105971;23;20016;-83
2021/04/13 03:31:54;;;;;;;14.55;4.72;;;;;;;-0.09;100.00;103243.66;6132230;23;20037;-83
2021/04/13 03:34:22;;;;;;;14.77;5.15;;;;;;;-0.04;100.00;103236.91;6106569;23;20013;-82
2021/04/13 03:36:53;;;;;;;15.13;6.65;;;;;;;-0.07;100.00;103230.69;6106623;23;20786;-85
2021/04/13 03:39:28;;;;;;;11.75;4.75;;;;;;;-0.04;100.00;103243.84;6105804;23;20020;-84
2021/04/13 03:41:56;;;;;;;15.82;5.55;;;;;;;-0.09;100.00;103224.56;6105913;23;20061;-84
2021/04/13 03:44:23;;;;;;;14.73;5.30;;;;;;;0.01;100.00;103239.69;6106484;23;20093;-84
2021/04/13 03:46:49;;;;;;;8.40;4.85;;;;;;;0.06;100.00;103243.34;6106309;23;20010;-83
2021/04/13 03:49:26;;;;;;;12.43;4.60;;;;;;;-0.02;100.00;103230.03;6132491;23;20017;-83
2021/04/13 03:51:59;;;;;;;13.52;5.95;;;;;;;0.45;100.00;103235.19;6131695;23;20013;-82
2021/04/13 03:54:31;;;;;;;13.90;5.72;;;;;;;0.43;100.00;103242.94;6129164;23;20001;-83
2021/04/13 03:56:59;;;;;;;12.77;5.43;;;;;;;0.44;100.00;103239.50;6131227;23;20434;-82
2021/04/13 03:59:30;;;;;;;12.95;5.80;;;;;;;0.44;100.00;103242.13;6105696;23;20434;-83
2021/04/13 04:01:56;;;;;;;15.20;7.28;;;;;;;0.40;100.00;103241.94;6106520;23;20028;-82
2021/04/13 04:04:36;;;;;;;18.08;6.10;;;;;;;0.33;100.00;103238.25;6105454;23;20009;-83
2021/04/13 04:07:24;;;;;;;15.10;6.00;;;;;;;0.30;100.00;103238.13;6131289;23;20032;-83
2021/04/13 04:09:50;;;;;;;15.80;6.75;;;;;;;0.31;100.00;103245.13;6130664;23;20085;-82
2021/04/13 04:12:22;;;;;;;15.73;7.72;;;;;;;0.23;100.00;103234.44;6131428;23;20010;-82
2021/04/13 04:14:55;;;;;;;18.42;7.05;;;;;;;0.25;100.00;103240.59;6132920;23;20304;-83
2021/04/13 04:17:20;;;;;;;13.80;6.53;;;;;;;0.24;100.00;103249.19;6107286;23;19998;-83
2021/04/13 04:19:58;;;;;;;10.48;6.28;;;;;;;0.20;100.00;103251.63;6132754;23;20037;-83
2021/04/13 04:22:24;;;;;;;9.77;5.47;;;;;;;0.08;100.00;103251.19;6131685;23;20064;-83
2021/04/13 04:24:51;;;;;;;11.73;6.40;;;;;;;0.14;100.00;103259.22;6107394;23;20005;-82
2021/04/13 04:27:41;;;;;;;18.52;7.00;;;;;;;0.19;100.00;103258.56;6121410;23;20036;-85
2021/04/13 04:30:28;;;;;;;12.35;6.47;;;;;;;0.11;100.00;103257.41;6072657;23;20034;-84
2021/04/13 04:32:58;;;;;;;27.05;7.45;;;;;;;0.22;100.00;103250.00;6049061;23;20082;-84
2021/04/13 04:35:37;;;;;;;20.10;7.22;;;;;;;0.28;100.00;103260.59;6072546;23;20011;-84
2021/04/13 04:38:05;;;;;;;17.30;7.57;;;;;;;0.28;100.00;103263.22;6047300;23;20010;-83
2021/04/13 04:40:31;;;;;;;29.45;8.63;;;;;;;0.27;100.00;103268.38;6070603;23;20007;-83
2021/04/13 04:43:05;;;;;;;12.35;6.95;;;;;;;0.22;100.00;103269.06;6071675;23;20017;-83
2021/04/13 04:45:45;;;;;;;12.52;7.38;;;;;;;0.21;100.00;103269.91;6047043;23;20013;-83
2021/04/13 04:48:31;;;;;;;25.17;8.75;;;;;;;0.24;100.00;103271.72;6071340;23;20066;-83
2021/04/13 04:50:59;;;;;;;20.63;8.77;;;;;;;0.23;100.00;103272.56;6048036;23;20090;-83
2021/04/13 04:53:30;;;;;;;26.13;7.57;;;;;;;0.11;100.00;103275.59;6071894;23;20062;-83
2021/04/13 04:56:12;;;;;;;22.70;8.50;;;;;;;0.08;100.00;103261.59;6070167;23;20007;-83
2021/04/13 04:59:00;;;;;;;26.48;7.55;;;;;;;0.14;100.00;103273.09;6046553;23;20003;-84
2021/04/13 05:01:29;;;;;;;30.35;7.93;;;;;;;0.09;100.00;103266.84;6060561;23;20021;-83
2021/04/13 05:03:54;;;;;;;22.80;8.43;;;;;;;0.17;100.00;103265.41;6070415;23;20026;-82
2021/04/13 05:06:20;;;;;;;20.63;8.70;;;;;;;0.36;100.00;103285.19;6083358;23;20006;-83
2021/04/13 05:08:47;;;;;;;36.05;8.88;;;;;;;0.41;100.00;103280.16;6132220;23;20092;-83
2021/04/13 05:11:31;;;;;;;43.85;8.90;;;;;;;0.37;100.00;103279.16;6133631;23;20025;-84
2021/04/13 05:14:16;;;;;;;28.65;9.38;;;;;;;0.48;100.00;103288.22;6133199;23;20446;-83
2021/04/13 05:16:54;;;;;;;36.63;8.43;;;;;;;0.52;100.00;103287.53;6123421;23;20010;-83
2021/04/13 05:19:21;;;;;;;27.20;8.90;;;;;;;0.47;100.00;103272.56;6104389;23;20005;-84
2021/04/13 05:21:48;;;;;;;24.80;7.90;;;;;;;0.59;100.00;103283.41;6130022;23;20006;-84
2021/04/13 05:24:15;;;;;;;21.80;7.00;;;;;;;0.62;100.00;103287.84;6100497;23;20011;-84
2021/04/13 05:26:40;;;;;;;22.85;7.40;;;;;;;0.78;100.00;103293.66;6100652;23;20341;-83
2021/04/13 05:35:41;;;;;;;24.27;7.43;;;;;;;0.92;100.00;103290.66;6132688;23;20022;-85
2021/04/13 05:38:43;;;;;;;19.77;7.28;;;;;;;1.06;100.00;103314.56;6131848;23;20010;-84
2021/04/13 05:44:41;;;;;;;13.57;6.35;;;;;;;1.28;100.00;103319.66;6133147;23;20466;-85
2021/04/13 05:50:42;;;;;;;20.42;6.65;;;;;;;1.40;100.00;103308.72;6135557;23;20025;-85
2021/04/13 05:53:08;;;;;;;18.45;6.00;;;;;;;1.43;100.00;103320.16;6112024;23;20010;-85
2021/04/13 05:55:35;;;;;;;16.38;5.32;;;;;;;1.67;100.00;103322.66;6137777;23;20006;-85
2021/04/13 05:58:12;;;;;;;20.67;5.47;;;;;;;1.73;100.00;103325.47;6109869;23;20065;-85
2021/04/13 06:00:37;;;;;;;22.77;4.93;;;;;;;1.80;100.00;103327.41;6135818;23;20006;-85
2021/04/13 06:03:03;;;;;;;29.08;5.03;;;;;;;1.85;100.00;103324.06;6109266;23;20012;-85
2021/04/13 06:06:10;;;;;;;33.08;6.22;;;;;;;1.95;100.00;103334.84;6107581;23;20006;-85
2021/04/13 06:08:53;;;;;;;17.60;5.50;;;;;;;2.07;100.00;103343.06;6133262;23;20006;-85
2021/04/13 06:11:30;;;;;;;15.07;4.32;;;;;;;2.11;100.00;103340.50;6117578;23;20021;-85
2021/04/13 06:13:57;;;;;;;24.80;7.57;;;;;;;2.32;100.00;103338.56;6117678;23;20034;-85
2021/04/13 06:16:25;;;;;;;27.65;4.32;;;;;;;2.41;100.00;103341.47;6108771;23;20037;-84
2021/04/13 06:18:50;;;;;;;28.85;3.92;;;;;;;2.50;100.00;103348.66;6108123;23;20461;-84
2021/04/13 06:21:16;;;;;;;14.35;3.95;;;;;;;2.69;100.00;103344.84;6133521;23;20002;-85
2021/04/13 06:23:41;;;;;;;18.05;5.20;;;;;;;2.67;100.00;103346.53;6110129;23;20009;-84
2021/04/13 06:26:07;;;;;;;17.30;3.83;;;;;;;3.15;100.00;103339.13;6108225;23;20005;-84
2021/04/13 06:28:32;;;;;;;10.00;2.42;;;;;;;3.26;100.00;103345.53;6108301;23;20061;-84
2021/04/13 06:30:57;;;;;;;17.13;3.60;;;;;;;3.48;100.00;103349.56;6106971;23;20518;-84
2021/04/13 06:33:23;;;;;;;14.50;3.88;;;;;;;3.59;100.00;103355.06;6135455;23;20002;-84
2021/04/13 06:35:49;;;;;;;26.17;7.13;;;;;;;3.51;100.00;103351.34;6106739;23;20427;-84
2021/04/13 06:44:47;;;;;;;9.60;3.10;;;;;;;3.88;100.00;103359.25;6162053;23;20025;-82
2021/04/13 06:47:56;;;;;;;6.97;2.70;;;;;;;3.98;100.00;103362.97;6135601;23;20041;-80
2021/04/13 06:50:55;;;;;;;8.43;2.42;;;;;;;4.02;100.00;103361.31;6150790;23;20017;-80
2021/04/13 06:53:48;;;;;;;18.05;2.97;;;;;;;4.06;100.00;103378.81;6133192;23;20033;-80
2021/04/13 06:56:58;;;;;;;11.05;3.38;;;;;;;4.22;100.00;103375.72;6157819;23;20014;-79
2021/04/13 06:59:49;;;;;;;16.35;3.17;;;;;;;4.22;100.00;103375.72;6134753;23;20044;-81
2021/04/13 07:03:44;;;;;;;16.95;4.75;;;;;;;4.43;100.00;103377.06;6072312;23;20003;-82
2021/04/13 07:15:36;;;;;;;5.07;2.63;;;;;;;4.73;100.00;103396.03;6126232;23;20022;-81
2021/04/13 07:18:19;;;;;;;5.95;2.08;;;;;;;4.83;100.00;103395.34;6131554;23;20220;-81
2021/04/13 07:21:58;;;;;;;12.07;3.13;;;;;;;4.91;100.00;103390.25;6131744;23;20002;-82
2021/04/13 07:24:24;;;;;;;;;;;;;;;5.06;100.00;103395.78;6021094;23;20003;-82
2021/04/13 07:27:00;;;;;;;8.67;2.40;;;;;;;5.06;100.00;103402.78;6045491;23;19916;-82
2021/04/13 07:29:55;;;;;;;13.15;2.03;;;;;;;5.07;100.00;103399.28;6017260;23;20049;-82
2021/04/13 07:32:23;;;;;;;13.10;3.03;;;;;;;5.25;100.00;103399.63;6016390;23;20003;-82
2021/04/13 07:34:55;;;;;;;8.35;2.33;;;;;;;5.20;100.00;103394.31;6016703;23;20038;-81
2021/04/13 07:37:45;;;;;;;9.70;1.77;;;;;;;5.46;100.00;103392.16;6014330;23;20007;-82
2021/04/13 07:40:12;;;;;;;10.35;2.35;;;;;;;5.72;100.00;103396.94;5954363;24;20012;-82
2021/04/13 07:43:30;;;;;;;8.05;1.65;;;;;;;5.75;100.00;103394.38;5957405;24;20036;-82
2021/04/13 07:46:39;;;;;;;9.00;1.55;;;;;;;5.70;100.00;103396.94;5898123;24;20033;-82
2021/04/13 07:49:27;;;;;;;3.42;1.08;;;;;;;5.97;100.00;103399.16;5896969;24;20010;-82
2021/04/13 07:52:31;;;;;;;9.63;1.48;;;;;;;5.79;100.00;103401.47;5897295;24;20009;-82
2021/04/13 07:55:06;;;;;;;8.95;0.90;;;;;;;5.95;100.00;103400.88;5886896;24;20030;-80
2021/04/13 07:57:40;;;;;;;6.50;1.10;;;;;;;5.98;100.00;103397.44;5896886;24;20017;-80
2021/04/13 08:00:15;;;;;;;3.75;0.95;;;;;;;6.15;100.00;103405.53;5947717;24;20411;-81
2021/04/13 08:02:41;;;;;;;6.72;0.98;;;;;;;6.36;100.00;103411.09;5954516;24;20035;-81
2021/04/13 08:05:10;;;;;;;4.28;0.88;;;;;;;6.34;100.00;103406.69;5974943;24;20012;-81
2021/04/13 08:07:40;;;;;;;10.32;2.15;;;;;;;6.41;100.00;103414.66;5977924;23;20008;-82
2021/04/13 08:10:27;;;;;;;11.15;2.28;;;;;;;6.00;100.00;103402.69;5985539;23;20157;-80
2021/04/13 08:12:55;;;;;;;8.68;1.52;;;;;;;6.09;100.00;103402.84;6062878;23;20333;-79
2021/04/13 08:15:48;;;;;;;8.65;1.70;;;;;;;6.49;100.00;103413.03;6062712;23;20046;-81
2021/04/13 08:18:43;;;;;;;7.03;1.25;;;;;;;6.50;100.00;103408.66;6042255;23;20094;-80
2021/04/13 08:21:25;;;;;;;3.85;1.05;;;;;;;6.62;100.00;103395.66;6084423;23;20002;-83
2021/04/13 08:23:53;;;;;;;5.63;1.73;;;;;;;6.62;100.00;103407.94;6124276;23;19998;-81
2021/04/13 08:26:30;;;;;;;7.57;1.85;;;;;;;6.63;100.00;103414.97;6126092;23;20417;-85
2021/04/13 08:29:05;;;;;;;15.20;1.75;;;;;;;6.50;100.00;103403.41;6124887;23;20006;-82
2021/04/13 08:34:32;;;;;;;5.32;1.20;;;;;;;6.66;100.00;103401.84;6126666;23;20057;-81
2021/04/13 08:37:13;;;;;;;10.55;2.10;;;;;;;6.83;100.00;103402.97;6123865;23;20010;-82
2021/04/13 08:39:43;;;;;;;5.00;1.25;;;;;;;7.16;100.00;103406.81;6123193;23;20078;-81
2021/04/13 08:42:33;;;;;;;3.35;1.08;;;;;;;6.82;100.00;103401.16;6121339;23;20034;-80
2021/04/13 08:45:31;;;;;;;11.27;1.95;;;;;;;7.24;100.00;103406.03;6126427;23;20053;-83
2021/04/13 08:48:05;;;;;;;3.88;1.27;;;;;;;7.23;100.00;103403.41;6127681;23;20017;-81
2021/04/13 08:50:41;;;;;;;7.65;1.75;;;;;;;7.24;100.00;103399.91;6122393;23;20006;-81
2021/04/13 08:53:34;;;;;;;11.13;1.58;;;;;;;7.44;100.00;103402.72;6122838;23;20037;-81
2021/04/13 08:56:04;;;;;;;4.05;1.20;;;;;;;7.32;100.00;103394.69;6124982;23;20732;-81
2021/04/13 08:59:02;;;;;;;5.53;1.50;;;;;;;7.68;100.00;103402.03;6128125;23;20002;-85
2021/04/13 09:01:38;;;;;;;3.50;1.20;;;;;;;7.47;100.00;103405.38;6128794;23;20009;-83
2021/04/13 09:05:08;;;;;;;4.97;1.23;;;;;;;7.50;100.00;103397.50;6126398;23;20343;-83
2021/04/13 09:07:49;;;;;;;2.15;0.80;;;;;;;7.46;100.00;103400.97;6094058;23;20002;-83
2021/04/13 09:10:33;;;;;;;3.95;1.52;;;;;;;7.44;100.00;103400.09;6094913;23;20805;-82
2021/04/13 09:13:21;;;;;;;5.93;1.27;;;;;;;8.26;100.00;103392.81;6070848;23;20081;-82
2021/04/13 09:16:12;;;;;;;4.13;1.00;;;;;;;8.76;100.00;103404.50;6064385;23;20030;-81
2021/04/13 09:18:51;;;;;;;6.72;1.63;;;;;;;9.22;100.00;103389.69;6093972;23;20045;-81
2021/04/13 09:21:23;;;;;;;9.95;1.00;;;;;;;9.53;100.00;103390.59;6092975;23;20041;-81
2021/04/13 09:24:20;;;;;;;6.25;1.20;;;;;;;9.04;100.00;103392.31;6094759;23;20388;-82
2021/04/13 09:26:48;;;;;;;5.07;1.40;;;;;;;9.58;100.00;103388.84;6093738;23;20025;-83
2021/04/13 09:29:46;;;;;;;8.30;1.20;;;;;;;9.59;100.00;103395.91;6070720;23;20021;-83
2021/04/13 09:32:23;;;;;;;5.70;1.23;;;;;;;8.52;100.00;103390.34;6071269;23;20740;-82
2021/04/13 09:35:19;;;;;;;6.43;0.95;;;;;;;8.19;100.00;103398.06;6096148;23;20069;-81
2021/04/13 09:38:23;;;;;;;6.90;1.70;;;;;;;8.79;100.00;103397.50;6093588;23;20010;-82
2021/04/13 09:41:11;;;;;;;8.70;1.35;;;;;;;8.57;100.00;103393.00;6125920;23;20081;-82
2021/04/13 09:47:35;;;;;;;5.93;1.02;;;;;;;8.34;100.00;103392.00;6127193;23;20025;-82
2021/04/13 09:50:43;;;;;;;9.13;1.20;;;;;;;7.64;100.00;103400.28;6126787;23;20013;-81
2021/04/13 09:53:46;;;;;;;7.07;1.30;;;;;;;7.91;100.00;103394.34;6128380;23;20325;-82
2021/04/13 10:07:09;;;;;;;6.03;1.65;;;;;;;8.40;100.00;103397.31;6129627;23;20444;-84
2021/04/13 10:10:20;;;;;;;5.85;1.40;;;;;;;9.17;98.73;103391.44;6128802;23;20073;-82
2021/04/13 10:32:29;;;;;;;9.43;1.30;;;;;;;12.41;60.83;103367.84;6128134;23;20069;-82
2021/04/13 10:35:39;;;;;;;5.00;1.17;;;;;;;10.83;61.24;103374.47;6073770;23;20063;-83
2021/04/13 10:38:57;;;;;;;3.60;1.00;;;;;;;13.92;44.10;103356.72;6115945;23;19998;-82
2021/04/13 10:45:31;;;;;;;2.05;0.80;;;;;;;10.75;47.12;103359.53;6162103;23;20028;-82
2021/04/13 10:48:51;;;;;;;3.63;1.00;;;;;;;10.26;49.97;103357.09;6133910;23;20379;-82
2021/04/13 10:51:54;;;;;;;5.25;1.35;;;;;;;12.29;43.83;103349.41;6160929;23;20006;-83
2021/04/13 10:54:31;;;;;;;5.32;1.30;;;;;;;13.76;41.36;103345.50;6127702;23;20456;-84
2021/04/13 10:57:38;;;;;;;5.65;1.67;;;;;;;11.92;40.47;103353.34;6134210;23;20585;-83
2021/04/13 11:00:30;;;;;;;3.30;1.60;;;;;;;11.45;42.25;103348.47;6071409;23;20021;-82
2021/04/13 11:03:04;;;;;;;6.50;1.40;;;;;;;12.08;42.64;103348.78;6039789;23;20528;-82
2021/04/13 11:05:38;;;;;;;1.38;0.80;;;;;;;11.20;43.54;103355.72;6046079;23;20018;-83
2021/04/13 11:08:41;;;;;;;3.53;1.10;;;;;;;10.41;47.03;103357.03;6066054;23;20084;-82
2021/04/13 11:11:41;;;;;;;7.53;1.73;;;;;;;10.13;49.21;103350.91;6042387;23;20592;-82
2021/04/13 11:14:40;;;;;;;10.63;1.23;;;;;;;8.93;51.54;103365.88;6072179;23;20006;-83
2021/04/13 11:17:20;;;;;;;4.25;1.35;;;;;;;8.75;53.54;103353.53;6077360;23;20011;-81
2021/04/13 11:20:04;;;;;;;7.18;1.42;;;;;;;9.11;52.96;103353.63;6049981;23;20178;-83
2021/04/13 11:22:53;;;;;;;9.90;1.50;;;;;;;8.72;54.50;103348.25;6045052;23;20151;-83
2021/04/13 11:25:56;;;;;;;5.80;1.02;;;;;;;8.61;54.96;103357.00;6043343;23;20086;-82
2021/04/13 11:28:40;;;;;;;3.80;1.25;;;;;;;8.21;56.28;103351.50;6041586;23;20101;-82
2021/04/13 11:31:37;;;;;;;8.88;2.08;;;;;;;8.01;56.21;103360.16;6093799;23;20006;-83
2021/04/13 11:34:02;;;;;;;;;;;;;;;7.99;56.12;103358.41;6157334;23;20018;-83
2021/04/13 11:36:54;;;;;;;6.83;1.33;;;;;;;8.05;56.47;103353.19;6156065;23;19920;-82
2021/04/13 11:40:08;;;;;;;5.68;1.50;;;;;;;8.28;55.42;103348.94;6129242;23;19998;-83
2021/04/13 11:42:38;;;;;;;4.85;1.50;;;;;;;12.99;44.59;103329.03;6089437;23;20006;-83
2021/04/13 11:45:26;;;;;;;7.10;1.90;;;;;;;13.12;42.00;103330.59;6069724;23;20029;-84
2021/04/13 11:48:39;;;;;;;5.40;1.70;;;;;;;15.92;35.17;103319.34;6097285;23;20010;-85
2021/04/13 11:51:27;;;;;;;4.57;1.20;;;;;;;15.39;37.49;103322.47;6008891;23;20011;-83
2021/04/13 11:53:53;;;;;;;7.57;1.50;;;;;;;14.72;37.17;103318.75;6008865;23;20095;-82
2021/04/13 11:56:21;;;;;;;6.55;1.67;;;;;;;12.37;41.73;103321.03;6009518;23;20090;-83
2021/04/13 11:59:22;;;;;;;5.03;1.10;;;;;;;11.00;44.55;103325.88;6006469;23;20094;-81
2021/04/13 12:01:49;;;;;;;4.30;1.27;;;;;;;11.28;45.78;103316.81;6008417;23;20008;-83
2021/04/13 12:04:20;;;;;;;5.35;1.15;;;;;;;10.36;46.11;103319.16;6007205;23;20105;-82
2021/04/13 12:06:56;;;;;;;4.07;1.40;;;;;;;10.48;48.08;103331.44;6008663;23;20018;-83
2021/04/13 12:10:03;;;;;;;3.42;1.50;;;;;;;10.50;44.73;103330.56;6033406;23;20032;-83
2021/04/13 12:12:31;;;;;;;6.00;1.15;;;;;;;10.68;44.14;103323.41;6046785;23;20007;-83
2021/04/13 12:15:07;;;;;;;1.88;1.08;;;;;;;10.37;44.71;103328.84;6068224;23;20011;-81
2021/04/13 12:17:40;;;;;;;2.35;0.93;;;;;;;10.23;45.31;103325.34;6058852;23;20011;-83
2021/04/13 12:20:21;;;;;;;4.60;1.17;;;;;;;9.71;45.58;103330.75;6069240;23;20341;-82
2021/04/13 12:22:47;;;;;;;6.43;1.52;;;;;;;9.74;45.97;103326.34;6067769;23;20083;-81
2021/04/13 12:25:33;;;;;;;3.50;1.30;;;;;;;9.64;45.94;103323.69;6044808;23;20023;-81
2021/04/13 12:28:08;;;;;;;5.50;1.65;;;;;;;14.97;36.43;103314.63;6128682;23;20004;-83
2021/04/13 12:30:50;;;;;;;2.60;1.02;;;;;;;18.11;31.14;103308.69;6156725;23;20006;-82
2021/04/13 12:33:25;;;;;;;7.93;1.45;;;;;;;19.38;28.87;103310.81;6157970;23;20044;-82
2021/04/13 12:35:57;;;;;;;2.67;1.48;;;;;;;19.47;28.24;103302.38;6157582;23;20029;-81
2021/04/13 12:38:37;;;;;;;4.47;1.13;;;;;;;14.87;33.34;103314.88;6160474;23;20300;-82
2021/04/13 12:41:15;;;;;;;4.72;1.48;;;;;;;12.38;38.30;103330.75;6159657;23;20016;-82
2021/04/13 12:43:44;;;;;;;6.57;1.30;;;;;;;12.41;38.87;103330.72;6135007;23;20374;-82
2021/04/13 12:46:32;;;;;;;6.82;1.10;;;;;;;11.74;39.00;103324.34;6159254;23;20044;-83
2021/04/13 12:49:02;;;;;;;3.40;1.23;;;;;;;10.84;38.61;103331.28;6133947;23;20001;-83
2021/04/13 12:51:37;;;;;;;4.18;1.33;;;;;;;10.95;39.77;103328.56;6136488;23;20069;-82
2021/04/13 12:54:15;;;;;;;3.28;1.10;;;;;;;10.59;40.82;103333.16;6139586;23;20009;-82
2021/04/13 12:56:47;;;;;;;2.78;1.13;;;;;;;10.87;40.36;103322.41;6163107;23;20041;-81
2021/04/13 12:59:14;;;;;;;7.18;1.30;;;;;;;10.31;40.33;103326.22;6161324;23;20478;-82
2021/04/13 13:01:43;;;;;;;3.35;1.05;;;;;;;10.28;40.03;103327.09;6161583;23;20033;-83
2021/04/13 13:04:11;;;;;;;3.90;1.23;;;;;;;10.43;39.55;103325.28;6157802;23;20005;-83
2021/04/13 13:06:40;;;;;;;1.60;1.10;;;;;;;10.59;40.53;103322.59;6131384;23;20001;-82
2021/04/13 13:09:15;;;;;;;2.55;1.02;;;;;;;10.63;40.02;103321.66;6159601;23;20012;-81
2021/04/13 13:11:40;;;;;;;4.13;1.10;;;;;;;10.66;40.51;103323.44;6133012;23;20010;-82
2021/04/13 13:14:07;;;;;;;4.38;1.30;;;;;;;10.48;40.69;103316.44;6159904;23;20001;-81
2021/04/13 13:16:32;;;;;;;5.55;1.08;;;;;;;10.48;40.10;103307.63;6158507;23;20009;-81
2021/04/13 13:18:58;;;;;;;5.15;1.23;;;;;;;10.98;40.86;103296.75;6130985;23;20001;-83
2021/04/13 13:21:46;;;;;;;1.90;1.10;;;;;;;11.04;40.20;103306.41;6155935;23;20029;-83
2021/04/13 13:24:19;;;;;;;5.28;1.33;;;;;;;10.30;40.99;103316.56;6157120;23;20746;-83
2021/04/13 13:26:44;;;;;;;8.77;1.52;;;;;;;10.74;40.77;103304.84;6131737;23;20006;-83